Etusivu
METAR-TAF:

METAR-TAF

Lentoasemat :

Austin, Texas, Yhdysvallat

Leveyspiiri: 30-24-00N, Pituuspiiri: 097-34-25W, korkeus merenpinnasta: 189 m

Tämänhetkinen sää

Tämä raportti tehtiin 16 minuuttia sitten, kello 21.35 UTC
Tuuli 9 kn etelästä puuskistuen 14 kn:hen
Lämpötila 35°C
Kosteus 42%
Ilmanpaine 1012 hPa
Muutamia pilviä 6000 ft:n korkeudessa

METAR: KEDC 092135Z AUTO 19009G14KT FEW060 35/20 A2987 RMK AO2

Aika: 15:51 (21:51 UTC)


TAF: puuttuu

Säähavainnot ja -ennusteet yli 4000 lentoasemalta (METAR- ja TAF-raportit).

Käytössä olevat sääasemat on merkitty karttaan keltaisilla ja punaisilla pisteillä.

Aseta hiiri pisteen päälle nähdäksesi sääaseman nimen.

Klikkaa sitten nähdäksesi säähavainnot ja -ennusteet.

Kartan vaihtaminen: klikkaa mustalla rastilla varustettuja vihreitä pisteitä, niin voit zoomata sisään; viivalla varustettua vihreää pistettä, niin voit zoomata ulos tai vihreitä nuolia, niin pääset viereisille kartoille.


METAR-TAF: